createdAt,value
2023-05-12T00:00:03.373Z,57.95
2023-05-12T00:01:03.463Z,58.06
2023-05-12T00:02:03.414Z,57.74
2023-05-12T00:03:03.459Z,57.70
2023-05-12T00:04:03.585Z,57.70
2023-05-12T00:05:03.534Z,57.79
2023-05-12T00:06:03.572Z,57.87
2023-05-12T00:07:03.522Z,57.96
2023-05-12T00:08:03.576Z,57.79
2023-05-12T00:09:03.585Z,58.07
2023-05-12T00:10:03.709Z,57.86
2023-05-12T00:11:03.632Z,57.86
2023-05-12T00:12:03.659Z,57.62
2023-05-12T00:13:03.686Z,57.72
2023-05-12T00:14:03.715Z,57.55
2023-05-12T00:15:03.750Z,57.40
2023-05-12T00:16:03.825Z,57.65
2023-05-12T00:17:03.786Z,57.70
2023-05-12T00:18:03.885Z,57.70
2023-05-12T00:19:03.946Z,57.90
2023-05-12T00:20:03.857Z,57.99
2023-05-12T00:21:03.877Z,57.81
2023-05-12T00:22:03.879Z,57.99
2023-05-12T00:23:03.894Z,58.04
2023-05-12T00:24:03.930Z,57.94
2023-05-12T00:25:03.961Z,58.00
2023-05-12T00:26:03.974Z,58.24
2023-05-12T00:27:04.010Z,58.10
2023-05-12T00:28:04.038Z,58.44
2023-05-12T00:29:04.049Z,58.45
2023-05-12T00:30:04.077Z,58.46
2023-05-12T00:31:04.204Z,58.57
2023-05-12T00:32:04.186Z,58.66
2023-05-12T00:33:04.154Z,58.67
2023-05-12T00:34:04.180Z,58.57
2023-05-12T00:35:04.184Z,58.73
2023-05-12T00:36:04.208Z,58.80
2023-05-12T00:37:04.240Z,58.84
2023-05-12T00:38:04.238Z,58.56
2023-05-12T00:39:04.269Z,58.55
2023-05-12T00:40:04.285Z,58.69
2023-05-12T00:41:04.304Z,58.77
2023-05-12T00:42:04.335Z,58.66
2023-05-12T00:43:04.362Z,58.69
2023-05-12T00:44:05.250Z,58.43
2023-05-12T00:45:04.392Z,58.30
2023-05-12T00:46:04.478Z,58.30
2023-05-12T00:47:04.440Z,58.10
2023-05-12T00:48:04.524Z,58.17
2023-05-12T00:49:04.496Z,58.16
2023-05-12T00:50:04.517Z,58.00
2023-05-12T00:51:04.551Z,58.16
2023-05-12T00:52:04.592Z,58.15
2023-05-12T00:53:04.618Z,58.12
2023-05-12T00:54:04.661Z,58.12
2023-05-12T00:55:04.664Z,58.17
2023-05-12T00:56:04.688Z,58.24
2023-05-12T00:57:04.751Z,58.32
2023-05-12T00:58:04.759Z,58.22
2023-05-12T00:59:04.781Z,58.07
2023-05-12T01:00:04.803Z,58.10
2023-05-12T01:01:04.834Z,57.99
2023-05-12T01:02:04.849Z,57.90
2023-05-12T01:03:04.972Z,58.14
2023-05-12T01:04:04.855Z,58.23
2023-05-12T01:05:04.851Z,58.06
2023-05-12T01:06:04.864Z,58.02
2023-05-12T01:07:04.874Z,57.94
2023-05-12T01:08:04.894Z,58.16
2023-05-12T01:09:04.913Z,58.24
2023-05-12T01:10:05.026Z,58.37
2023-05-12T01:11:04.954Z,58.28
2023-05-12T01:12:04.970Z,58.29
2023-05-12T01:13:04.981Z,58.32
2023-05-12T01:14:05.004Z,58.28
2023-05-12T01:15:05.014Z,58.28
2023-05-12T01:16:05.032Z,58.21
2023-05-12T01:17:05.090Z,58.03
2023-05-12T01:18:05.066Z,58.04
2023-05-12T01:19:05.096Z,58.08
2023-05-12T01:20:05.089Z,58.14
2023-05-12T01:21:05.107Z,58.13
2023-05-12T01:22:05.143Z,58.25
2023-05-12T01:23:05.167Z,58.28
2023-05-12T01:24:05.198Z,58.17
2023-05-12T01:25:05.244Z,58.17
2023-05-12T01:26:05.269Z,58.05
2023-05-12T01:27:05.255Z,58.04
2023-05-12T01:28:05.300Z,58.02
2023-05-12T01:29:05.320Z,58.08
2023-05-12T01:30:05.347Z,58.12
2023-05-12T01:31:05.432Z,58.06
2023-05-12T01:32:05.401Z,58.11
2023-05-12T01:33:05.455Z,57.87
2023-05-12T01:34:05.436Z,58.12
2023-05-12T01:35:05.466Z,58.07
2023-05-12T01:36:05.490Z,58.13
2023-05-12T01:37:05.494Z,58.23
2023-05-12T01:38:05.529Z,58.14
2023-05-12T01:39:05.558Z,58.17
2023-05-12T01:40:05.583Z,58.06
2023-05-12T01:41:05.617Z,58.11
2023-05-12T01:42:05.605Z,58.16
2023-05-12T01:43:05.639Z,58.29
2023-05-12T01:44:05.692Z,58.17
2023-05-12T01:45:05.679Z,58.01
2023-05-12T01:46:05.736Z,58.04
2023-05-12T01:47:05.741Z,58.05
2023-05-12T01:48:05.823Z,58.02
2023-05-12T01:49:05.736Z,58.03
2023-05-12T01:50:05.753Z,57.93
2023-05-12T01:51:05.782Z,57.86
2023-05-12T01:52:05.809Z,57.94
2023-05-12T01:53:05.827Z,58.05
2023-05-12T01:54:05.837Z,58.31
2023-05-12T01:55:05.853Z,58.37
2023-05-12T01:56:05.890Z,58.41
2023-05-12T01:57:05.911Z,58.44
2023-05-12T01:58:05.925Z,58.33
2023-05-12T01:59:06.017Z,58.32
2023-05-12T02:00:05.991Z,58.42
2023-05-12T02:01:06.021Z,58.09
2023-05-12T02:02:06.080Z,58.05
2023-05-12T02:03:06.092Z,58.11
2023-05-12T02:04:06.229Z,58.17
2023-05-12T02:05:06.099Z,58.09
2023-05-12T02:06:06.140Z,58.13
2023-05-12T02:07:06.174Z,58.18
2023-05-12T02:08:06.197Z,58.28
2023-05-12T02:09:06.214Z,58.36
2023-05-12T02:10:06.238Z,58.42
2023-05-12T02:11:06.267Z,58.44
2023-05-12T02:12:06.290Z,58.65
2023-05-12T02:13:06.321Z,58.49
2023-05-12T02:14:06.340Z,58.64
2023-05-12T02:15:06.347Z,58.66
2023-05-12T02:16:06.390Z,58.76
2023-05-12T02:17:06.377Z,58.65
2023-05-12T02:18:06.489Z,58.61
2023-05-12T02:19:06.581Z,58.63
2023-05-12T02:20:06.466Z,58.53
2023-05-12T02:21:06.473Z,58.35
2023-05-12T02:22:06.491Z,58.29
2023-05-12T02:23:06.527Z,58.56
2023-05-12T02:24:06.561Z,58.49
2023-05-12T02:25:06.614Z,58.62
2023-05-12T02:26:06.636Z,58.62
2023-05-12T02:27:06.677Z,58.56
2023-05-12T02:28:06.694Z,58.60
2023-05-12T02:29:06.733Z,58.56
2023-05-12T02:30:06.798Z,58.65
2023-05-12T02:31:06.841Z,58.64
2023-05-12T02:32:06.962Z,58.69
2023-05-12T02:33:06.956Z,58.63
2023-05-12T02:34:06.978Z,58.60
2023-05-12T02:35:07.013Z,58.67
2023-05-12T02:36:07.078Z,58.60
2023-05-12T02:37:07.105Z,58.55
2023-05-12T02:38:07.141Z,58.45
2023-05-12T02:39:07.199Z,58.59
2023-05-12T02:40:07.221Z,58.58
2023-05-12T02:41:07.322Z,58.69
2023-05-12T02:42:07.298Z,58.72
2023-05-12T02:43:07.346Z,58.74
2023-05-12T02:44:07.394Z,58.71
2023-05-12T02:45:07.439Z,58.77
2023-05-12T02:46:07.539Z,58.70
2023-05-12T02:47:07.553Z,58.58
2023-05-12T02:48:07.631Z,58.61
2023-05-12T02:49:07.625Z,58.46
2023-05-12T02:50:07.670Z,58.53
2023-05-12T02:51:07.718Z,58.59
2023-05-12T02:52:07.774Z,58.58
2023-05-12T02:53:07.793Z,58.55
2023-05-12T02:54:07.837Z,58.48
2023-05-12T02:55:07.850Z,58.49
2023-05-12T02:56:07.891Z,58.49
2023-05-12T02:57:07.912Z,58.59
2023-05-12T02:58:07.929Z,58.66
2023-05-12T02:59:07.949Z,58.61
2023-05-12T03:00:07.988Z,58.53
2023-05-12T03:01:11.100Z,58.45
2023-05-12T03:02:08.096Z,58.55
2023-05-12T03:03:08.194Z,58.69
2023-05-12T03:04:08.022Z,58.62
2023-05-12T03:05:08.036Z,58.38
2023-05-12T03:06:08.046Z,58.34
2023-05-12T03:07:08.051Z,58.43
2023-05-12T03:08:08.063Z,58.38
2023-05-12T03:09:08.087Z,58.45
2023-05-12T03:10:08.094Z,58.71
2023-05-12T03:11:08.103Z,58.67
2023-05-12T03:12:08.115Z,58.72
2023-05-12T03:13:08.125Z,58.71
2023-05-12T03:14:08.141Z,58.76
2023-05-12T03:15:08.152Z,58.87
2023-05-12T03:16:08.157Z,58.85
2023-05-12T03:17:08.287Z,58.85
2023-05-12T03:18:08.237Z,58.82
2023-05-12T03:19:08.245Z,58.98
2023-05-12T03:20:08.213Z,58.89
2023-05-12T03:21:08.220Z,58.82
2023-05-12T03:22:08.250Z,58.76
2023-05-12T03:23:08.265Z,58.72
2023-05-12T03:24:08.267Z,58.61
2023-05-12T03:25:08.293Z,58.71
2023-05-12T03:26:08.292Z,58.76
2023-05-12T03:27:08.327Z,58.97
2023-05-12T03:28:08.339Z,58.90
2023-05-12T03:29:08.355Z,58.89
2023-05-12T03:30:08.366Z,58.94
2023-05-12T03:31:08.415Z,58.89
2023-05-12T03:32:08.401Z,58.86
2023-05-12T03:33:08.413Z,58.99
2023-05-12T03:34:08.428Z,59.02
2023-05-12T03:35:08.441Z,58.87
2023-05-12T03:36:08.445Z,58.67
2023-05-12T03:37:08.459Z,58.72
2023-05-12T03:38:09.485Z,58.78
2023-05-12T03:39:08.491Z,58.82
2023-05-12T03:40:08.525Z,58.67
2023-05-12T03:41:08.536Z,58.75
2023-05-12T03:42:08.549Z,58.85
2023-05-12T03:43:08.553Z,58.93
2023-05-12T03:44:08.573Z,58.92
2023-05-12T03:45:08.594Z,59.01
2023-05-12T03:46:08.635Z,58.97
2023-05-12T03:47:08.713Z,59.22
2023-05-12T03:48:08.672Z,59.25
2023-05-12T03:49:08.629Z,59.38
2023-05-12T03:50:08.672Z,59.44
2023-05-12T03:51:08.664Z,59.85
2023-05-12T03:52:08.683Z,59.60
2023-05-12T03:53:08.701Z,59.94
2023-05-12T03:54:08.752Z,59.93
2023-05-12T03:55:09.749Z,59.77
2023-05-12T03:56:08.870Z,59.82
2023-05-12T03:57:08.959Z,59.68
2023-05-12T03:58:08.997Z,59.73
2023-05-12T03:59:09.056Z,60.50
2023-05-12T04:00:09.152Z,60.19
2023-05-12T04:01:09.225Z,60.28
2023-05-12T04:02:09.357Z,60.78
2023-05-12T04:03:09.413Z,60.28
2023-05-12T04:04:09.505Z,60.37
2023-05-12T04:05:09.564Z,61.00
2023-05-12T04:06:09.632Z,61.07
2023-05-12T04:07:09.704Z,60.85
2023-05-12T04:08:09.782Z,60.73
2023-05-12T04:09:09.849Z,60.96
2023-05-12T04:10:09.923Z,60.86
2023-05-12T04:11:09.971Z,61.06
2023-05-12T04:12:10.032Z,60.83
2023-05-12T04:13:10.072Z,60.60
2023-05-12T04:14:10.127Z,60.58
2023-05-12T04:15:10.174Z,60.49
2023-05-12T04:16:10.276Z,60.27
2023-05-12T04:17:10.263Z,60.06
2023-05-12T04:18:10.315Z,60.05
2023-05-12T04:19:10.391Z,60.14
2023-05-12T04:20:10.398Z,60.05
2023-05-12T04:21:10.427Z,60.14
2023-05-12T04:22:10.492Z,60.01
2023-05-12T04:23:10.545Z,59.97
2023-05-12T04:24:10.590Z,60.10
2023-05-12T04:25:10.644Z,60.11
2023-05-12T04:26:10.687Z,60.02
2023-05-12T04:27:10.749Z,60.36
2023-05-12T04:28:12.187Z,60.14
2023-05-12T04:29:10.869Z,60.06
2023-05-12T04:30:10.935Z,60.03
2023-05-12T04:31:10.991Z,59.97
2023-05-12T04:32:11.118Z,59.88
2023-05-12T04:33:11.205Z,60.01
2023-05-12T04:34:11.208Z,60.50
2023-05-12T04:35:11.285Z,60.57
2023-05-12T04:36:11.374Z,60.18
2023-05-12T04:37:11.456Z,60.09
2023-05-12T04:38:11.531Z,60.38
2023-05-12T04:39:11.584Z,60.13
2023-05-12T04:40:11.676Z,60.02
2023-05-12T04:41:11.720Z,59.92
2023-05-12T04:42:11.794Z,59.71
2023-05-12T04:43:59.923Z,59.59
2023-05-12T04:44:12.836Z,59.46
2023-05-12T04:45:11.855Z,59.13
2023-05-12T04:46:11.913Z,59.20
2023-05-12T04:47:11.889Z,59.33
2023-05-12T04:48:11.908Z,59.18
2023-05-12T04:49:11.930Z,59.12
2023-05-12T04:50:11.950Z,59.03
2023-05-12T04:51:11.955Z,58.87
2023-05-12T04:52:11.971Z,58.86
2023-05-12T04:53:11.989Z,58.89
2023-05-12T04:54:12.015Z,58.85
2023-05-12T04:55:12.037Z,58.98
2023-05-12T04:56:12.048Z,59.09
2023-05-12T04:57:12.080Z,59.14
2023-05-12T04:58:12.085Z,59.16
2023-05-12T04:59:12.129Z,59.43
2023-05-12T05:00:12.190Z,59.18
2023-05-12T05:01:12.303Z,59.10
2023-05-12T05:02:12.295Z,59.09
2023-05-12T05:03:12.404Z,58.99
2023-05-12T05:04:12.366Z,58.68
2023-05-12T05:05:12.521Z,58.65
2023-05-12T05:06:12.475Z,58.61
2023-05-12T05:07:12.511Z,58.60
2023-05-12T05:08:12.541Z,58.59
2023-05-12T05:09:12.593Z,58.64
2023-05-12T05:10:12.638Z,58.64
2023-05-12T05:11:12.688Z,58.72
2023-05-12T05:12:12.735Z,58.54
2023-05-12T05:13:12.825Z,58.61
2023-05-12T05:14:12.834Z,58.62
2023-05-12T05:15:12.896Z,58.57
2023-05-12T05:16:13.004Z,58.57
2023-05-12T05:17:12.966Z,58.60
2023-05-12T05:18:13.038Z,58.68
2023-05-12T05:19:21.414Z,58.76
2023-05-12T05:20:15.467Z,58.74
2023-05-12T05:21:13.280Z,58.64
2023-05-12T05:22:13.255Z,58.67
2023-05-12T05:23:13.292Z,58.60
2023-05-12T05:24:13.317Z,58.63
2023-05-12T05:25:13.340Z,58.83
2023-05-12T05:26:13.393Z,59.14
2023-05-12T05:27:13.438Z,59.01
2023-05-12T05:28:13.534Z,59.00
2023-05-12T05:29:13.556Z,59.21
2023-05-12T05:30:13.959Z,59.05
2023-05-12T05:31:13.679Z,59.32
2023-05-12T05:32:13.717Z,59.05
2023-05-12T05:33:13.770Z,59.25
2023-05-12T05:34:13.861Z,59.18
2023-05-12T05:35:13.890Z,59.40
2023-05-12T05:36:13.941Z,59.31
2023-05-12T05:37:14.057Z,59.11
2023-05-12T05:38:14.030Z,59.83
2023-05-12T05:39:14.096Z,60.08
2023-05-12T05:40:14.288Z,60.07
2023-05-12T05:41:15.189Z,59.95
2023-05-12T05:42:14.336Z,59.99
2023-05-12T05:43:14.420Z,60.33
2023-05-12T05:44:14.827Z,60.44
2023-05-12T05:45:14.850Z,59.95
2023-05-12T05:46:14.711Z,59.90
2023-05-12T05:47:14.820Z,59.91
2023-05-12T05:48:14.819Z,59.78
2023-05-12T05:49:14.889Z,59.72
2023-05-12T05:50:15.773Z,60.23
2023-05-12T05:51:15.441Z,59.82
2023-05-12T05:52:15.122Z,59.92
2023-05-12T05:53:15.668Z,59.78
2023-05-12T05:54:15.229Z,60.24
2023-05-12T05:55:15.502Z,60.02
2023-05-12T05:56:15.390Z,59.76
2023-05-12T05:57:15.441Z,59.47
2023-05-12T05:58:15.473Z,59.38
2023-05-12T05:59:16.993Z,59.16
2023-05-12T06:00:15.647Z,59.09
2023-05-12T06:01:15.514Z,58.94
2023-05-12T06:02:15.792Z,58.84
2023-05-12T06:03:15.584Z,58.90
2023-05-12T06:04:15.583Z,58.70
2023-05-12T06:05:15.723Z,58.66
2023-05-12T06:06:16.555Z,58.78
2023-05-12T06:07:15.566Z,59.00
2023-05-12T06:08:15.830Z,59.03
2023-05-12T06:09:15.690Z,58.63
2023-05-12T06:10:15.617Z,58.40
2023-05-12T06:11:17.675Z,58.15
2023-05-12T06:12:15.657Z,58.08
2023-05-12T06:13:15.652Z,58.22
2023-05-12T06:14:15.642Z,58.21
2023-05-12T06:15:15.803Z,58.05
2023-05-12T06:16:15.868Z,58.06
2023-05-12T06:17:15.829Z,58.03
2023-05-12T06:18:15.866Z,57.99
2023-05-12T06:19:15.896Z,58.02
2023-05-12T06:20:15.877Z,57.15
2023-05-12T06:21:15.897Z,57.27
2023-05-12T06:22:15.920Z,57.32
2023-05-12T06:23:15.939Z,57.78
2023-05-12T06:24:15.947Z,57.60
2023-05-12T06:25:15.952Z,58.33
2023-05-12T06:26:16.787Z,57.90
2023-05-12T06:27:15.948Z,57.69
2023-05-12T06:28:15.968Z,57.66
2023-05-12T06:29:15.963Z,57.43
2023-05-12T06:30:16.446Z,57.38
2023-05-12T06:31:16.894Z,57.17
2023-05-12T06:32:16.161Z,57.40
2023-05-12T06:33:16.243Z,57.61
2023-05-12T06:34:16.290Z,57.47
2023-05-12T06:35:16.181Z,57.44
2023-05-12T06:36:16.222Z,57.42
2023-05-12T06:37:16.120Z,57.16
2023-05-12T06:38:16.132Z,57.32
2023-05-12T06:39:16.744Z,57.56
2023-05-12T06:40:16.138Z,57.26
2023-05-12T06:41:17.289Z,57.16
2023-05-12T06:42:16.164Z,57.88
2023-05-12T06:43:16.135Z,57.67
2023-05-12T06:44:16.229Z,57.69
2023-05-12T06:45:16.354Z,57.40
2023-05-12T06:46:16.176Z,57.41
2023-05-12T06:47:16.149Z,57.19
2023-05-12T06:48:16.371Z,57.36
2023-05-12T06:49:16.190Z,57.24
2023-05-12T06:50:16.796Z,56.89
2023-05-12T06:51:16.137Z,56.62
2023-05-12T06:52:16.138Z,56.35
2023-05-12T06:53:16.206Z,56.56
2023-05-12T06:54:16.311Z,56.65
2023-05-12T06:55:16.326Z,57.10
2023-05-12T06:56:16.385Z,57.08
2023-05-12T06:57:16.519Z,56.86
2023-05-12T06:58:16.549Z,56.46
2023-05-12T06:59:16.569Z,55.95
2023-05-12T07:00:16.630Z,55.81
2023-05-12T07:01:17.327Z,55.20
2023-05-12T07:02:16.775Z,55.13
2023-05-12T07:03:16.946Z,56.08
2023-05-12T07:04:16.913Z,56.00
2023-05-12T07:05:16.972Z,56.92
2023-05-12T07:06:17.088Z,55.80
2023-05-12T07:07:17.092Z,55.46
2023-05-12T07:08:17.177Z,55.58
2023-05-12T07:09:17.206Z,55.18
2023-05-12T07:10:17.252Z,55.20
2023-05-12T07:11:17.309Z,55.57
2023-05-12T07:12:17.389Z,55.62
2023-05-12T07:13:18.320Z,55.61
2023-05-12T07:14:17.498Z,56.45
2023-05-12T07:15:17.625Z,55.62
2023-05-12T07:16:17.654Z,55.39
2023-05-12T07:17:17.666Z,54.39
2023-05-12T07:18:17.747Z,56.62
2023-05-12T07:19:17.822Z,56.06
2023-05-12T07:20:17.861Z,55.93
2023-05-12T07:21:17.932Z,55.42
2023-05-12T07:22:17.992Z,55.18
2023-05-12T07:23:18.121Z,54.80
2023-05-12T07:24:18.724Z,54.55
2023-05-12T07:25:19.157Z,53.99
2023-05-12T07:26:18.420Z,54.83
2023-05-12T07:27:18.292Z,54.41
2023-05-12T07:28:18.203Z,55.59
2023-05-12T07:29:18.194Z,55.09
2023-05-12T07:30:18.226Z,54.03
2023-05-12T07:31:18.266Z,53.98
2023-05-12T07:32:18.281Z,54.29
2023-05-12T07:33:18.420Z,54.61
2023-05-12T07:34:18.430Z,54.66
2023-05-12T07:35:18.700Z,54.09
2023-05-12T07:36:19.702Z,53.83
2023-05-12T07:37:18.506Z,53.79
2023-05-12T07:38:18.861Z,54.55
2023-05-12T07:39:18.489Z,54.80
2023-05-12T07:40:18.505Z,54.25
2023-05-12T07:41:19.596Z,54.01
2023-05-12T07:42:18.483Z,54.41
2023-05-12T07:43:18.475Z,55.67
2023-05-12T07:44:18.471Z,54.80
2023-05-12T07:45:19.659Z,54.02
2023-05-12T07:46:18.458Z,54.29
2023-05-12T07:47:18.492Z,53.92
2023-05-12T07:48:19.314Z,53.81
2023-05-12T07:49:18.456Z,53.87
2023-05-12T07:50:18.401Z,54.50
2023-05-12T07:51:18.401Z,55.27
2023-05-12T07:52:18.382Z,54.41
2023-05-12T07:53:18.388Z,53.90
2023-05-12T07:54:18.424Z,53.38
2023-05-12T07:55:18.760Z,53.06
2023-05-12T07:56:24.324Z,53.49
2023-05-12T07:57:18.436Z,53.26
2023-05-12T07:58:18.469Z,51.82
2023-05-12T07:59:18.400Z,51.22
2023-05-12T08:00:18.410Z,51.96
2023-05-12T08:01:18.387Z,53.32
2023-05-12T08:02:18.462Z,52.98
2023-05-12T08:03:18.403Z,52.77
2023-05-12T08:04:18.386Z,51.51
2023-05-12T08:05:18.487Z,51.44
2023-05-12T08:06:18.275Z,51.02
2023-05-12T08:07:18.268Z,51.55
2023-05-12T08:08:18.281Z,51.69
2023-05-12T08:09:18.183Z,50.94
2023-05-12T08:10:18.161Z,50.61
2023-05-12T08:11:18.121Z,51.85
2023-05-12T08:12:18.128Z,51.57
2023-05-12T08:13:18.081Z,50.65
2023-05-12T08:14:18.043Z,50.70
2023-05-12T08:15:18.263Z,50.87
2023-05-12T08:16:18.016Z,51.31
2023-05-12T08:17:17.978Z,51.00
2023-05-12T08:18:17.944Z,50.49
2023-05-12T08:19:17.894Z,50.61
2023-05-12T08:20:17.825Z,51.21
2023-05-12T08:21:17.821Z,50.52
2023-05-12T08:22:17.752Z,49.98
2023-05-12T08:23:17.800Z,50.07
2023-05-12T08:24:17.694Z,50.35
2023-05-12T08:25:17.831Z,49.77
2023-05-12T08:26:17.633Z,49.52
2023-05-12T08:27:19.235Z,49.43
2023-05-12T08:28:17.600Z,49.36
2023-05-12T08:29:17.475Z,49.26
2023-05-12T08:30:17.421Z,49.20
2023-05-12T08:31:17.396Z,48.52
2023-05-12T08:32:17.525Z,49.16
2023-05-12T08:33:18.235Z,49.68
2023-05-12T08:34:17.307Z,49.79
2023-05-12T08:35:17.235Z,48.92
2023-05-12T08:36:17.167Z,47.87
2023-05-12T08:37:17.120Z,47.88
2023-05-12T08:38:17.280Z,50.45
2023-05-12T08:39:17.050Z,51.46
2023-05-12T08:40:17.354Z,51.16
2023-05-12T08:41:16.988Z,50.53
2023-05-12T08:42:17.018Z,50.49
2023-05-12T08:43:17.300Z,50.86
2023-05-12T08:44:16.903Z,51.30
2023-05-12T08:45:17.877Z,51.02
2023-05-12T08:46:16.870Z,52.68
2023-05-12T08:47:16.851Z,52.51
2023-05-12T08:48:16.932Z,52.38
2023-05-12T08:49:16.752Z,51.57
2023-05-12T08:50:16.737Z,51.88
2023-05-12T08:51:16.752Z,51.59
2023-05-12T08:52:16.705Z,51.41
2023-05-12T08:53:16.737Z,50.80
2023-05-12T08:54:16.646Z,50.74
2023-05-12T08:55:16.612Z,50.96
2023-05-12T08:57:16.724Z,50.04
2023-05-12T08:58:16.534Z,49.38
2023-05-12T08:59:16.507Z,49.16
2023-05-12T09:00:16.417Z,49.99
2023-05-12T09:01:16.488Z,49.66
2023-05-12T09:02:16.564Z,49.66
2023-05-12T09:03:16.310Z,49.39
2023-05-12T09:04:16.361Z,49.05
2023-05-12T09:05:16.185Z,49.68
2023-05-12T09:06:16.142Z,49.39
2023-05-12T09:07:16.107Z,47.47
2023-05-12T09:08:16.053Z,47.57
2023-05-12T09:09:16.014Z,47.98
2023-05-12T09:10:29.838Z,47.52
2023-05-12T09:11:16.887Z,46.91
2023-05-12T09:12:16.854Z,47.36
2023-05-12T09:13:16.758Z,47.27
2023-05-12T09:14:15.846Z,46.91
2023-05-12T09:15:15.749Z,47.25
2023-05-12T09:16:15.740Z,47.48
2023-05-12T09:17:15.650Z,48.15
2023-05-12T09:18:15.607Z,48.46
2023-05-12T09:19:15.646Z,48.43
2023-05-12T09:20:30.467Z,48.95
2023-05-12T09:21:16.542Z,46.65
2023-05-12T09:22:15.445Z,46.97
2023-05-12T09:23:15.413Z,47.52
2023-05-12T09:24:15.354Z,47.18
2023-05-12T09:25:15.357Z,47.25
2023-05-12T09:26:15.294Z,49.72
2023-05-12T09:27:15.236Z,48.59
2023-05-12T09:28:15.199Z,48.37
2023-05-12T09:29:21.209Z,49.71
2023-05-12T09:30:16.122Z,48.82
2023-05-12T09:31:15.072Z,48.60
2023-05-12T09:32:14.978Z,48.42
2023-05-12T09:33:15.026Z,47.64
2023-05-12T09:34:14.879Z,47.90
2023-05-12T09:35:14.825Z,48.16
2023-05-12T09:36:14.755Z,46.67
2023-05-12T09:37:15.528Z,46.73
2023-05-12T09:38:14.758Z,46.64
2023-05-12T09:39:14.568Z,47.27
2023-05-12T09:40:14.534Z,46.44
2023-05-12T09:41:14.452Z,46.70
2023-05-12T09:42:14.371Z,47.20
2023-05-12T09:43:15.743Z,47.93
2023-05-12T09:44:14.280Z,48.90
2023-05-12T09:45:14.314Z,48.08
2023-05-12T09:46:14.224Z,48.51
2023-05-12T09:47:14.128Z,47.18
2023-05-12T09:48:14.374Z,46.55
2023-05-12T09:49:14.024Z,45.43
2023-05-12T09:50:15.776Z,46.23
2023-05-12T09:51:13.913Z,48.24
2023-05-12T09:52:14.176Z,47.61
2023-05-12T09:53:13.835Z,45.97
2023-05-12T09:54:13.796Z,45.57
2023-05-12T09:55:13.750Z,46.08
2023-05-12T09:56:13.711Z,45.49
2023-05-12T09:57:13.669Z,44.53
2023-05-12T09:58:13.652Z,44.36
2023-05-12T09:59:13.644Z,44.02
2023-05-12T10:00:29.766Z,43.59
2023-05-12T10:01:22.717Z,44.64
2023-05-12T10:02:14.482Z,43.14
2023-05-12T10:03:13.440Z,42.83
2023-05-12T10:04:13.439Z,42.96
2023-05-12T10:05:13.327Z,44.72
2023-05-12T10:06:13.218Z,44.07
2023-05-12T10:07:13.138Z,42.98
2023-05-12T10:08:13.107Z,42.80
2023-05-12T10:09:13.032Z,43.57
2023-05-12T10:10:12.986Z,43.74
2023-05-12T10:11:12.928Z,44.36
2023-05-12T10:12:12.869Z,43.06
2023-05-12T10:13:12.956Z,43.44
2023-05-12T10:14:12.735Z,42.94
2023-05-12T10:15:13.347Z,43.47
2023-05-12T10:16:12.639Z,41.91
2023-05-12T10:17:12.756Z,41.68
2023-05-12T10:18:12.494Z,42.62
2023-05-12T10:19:13.345Z,43.34
2023-05-12T10:20:12.351Z,43.54
2023-05-12T10:21:12.250Z,41.88
2023-05-12T10:22:12.239Z,42.66
2023-05-12T10:23:12.142Z,42.90
2023-05-12T10:24:12.088Z,42.97
2023-05-12T10:25:12.038Z,44.24
2023-05-12T10:26:11.972Z,42.70
2023-05-12T10:27:12.890Z,42.52
2023-05-12T10:28:11.942Z,43.34
2023-05-12T10:29:11.735Z,43.50
2023-05-12T10:30:11.681Z,43.48
2023-05-12T10:31:11.659Z,43.16
2023-05-12T10:32:11.631Z,44.61
2023-05-12T10:33:11.450Z,43.51
2023-05-12T10:34:11.410Z,43.67
2023-05-12T10:35:11.512Z,43.47
2023-05-12T10:36:11.254Z,44.76
2023-05-12T10:37:11.400Z,43.31
2023-05-12T10:38:11.198Z,42.70
2023-05-12T10:39:11.127Z,43.31
2023-05-12T10:40:11.030Z,41.93
2023-05-12T10:41:10.951Z,41.17
2023-05-12T10:42:10.918Z,43.37
2023-05-12T10:43:10.885Z,44.29
2023-05-12T10:44:10.888Z,42.06
2023-05-12T10:45:11.358Z,42.15
2023-05-12T10:46:10.861Z,42.83
2023-05-12T10:47:11.161Z,42.46
2023-05-12T10:48:11.476Z,42.05
2023-05-12T10:49:11.772Z,41.31
2023-05-12T10:50:10.820Z,41.18
2023-05-12T10:51:10.843Z,38.80
2023-05-12T10:52:10.778Z,40.45
2023-05-12T10:53:10.750Z,40.92
2023-05-12T10:54:10.757Z,39.27
2023-05-12T10:55:10.721Z,37.54
2023-05-12T10:56:10.871Z,36.96
2023-05-12T10:57:11.095Z,38.32
2023-05-12T10:58:11.381Z,38.89
2023-05-12T10:59:10.712Z,39.35
2023-05-12T11:00:10.941Z,40.37
2023-05-12T11:01:11.650Z,38.51
2023-05-12T11:02:11.660Z,37.50
2023-05-12T11:03:11.779Z,37.29
2023-05-12T11:04:10.610Z,38.44
2023-05-12T11:05:10.844Z,39.21
2023-05-12T11:06:10.753Z,39.62
2023-05-12T11:07:11.812Z,39.79
2023-05-12T11:08:11.581Z,41.48
2023-05-12T11:09:11.140Z,40.04
2023-05-12T11:10:10.710Z,40.38
2023-05-12T11:11:11.053Z,39.64
2023-05-12T11:12:10.163Z,40.82
2023-05-12T11:13:10.118Z,40.65
2023-05-12T11:14:10.786Z,39.66
2023-05-12T11:15:10.088Z,40.68
2023-05-12T11:16:10.095Z,40.34
2023-05-12T11:17:09.994Z,39.74
2023-05-12T11:18:10.053Z,39.29
2023-05-12T11:19:09.964Z,38.71
2023-05-12T11:20:09.998Z,40.48
2023-05-12T11:21:09.923Z,40.34
2023-05-12T11:22:09.842Z,39.84
2023-05-12T11:23:09.967Z,38.16
2023-05-12T11:24:12.918Z,39.97
2023-05-12T11:25:09.869Z,40.30
2023-05-12T11:26:09.743Z,40.03
2023-05-12T11:27:09.657Z,40.30
2023-05-12T11:28:09.591Z,39.44
2023-05-12T11:29:09.461Z,38.52
2023-05-12T11:30:09.580Z,37.43
2023-05-12T11:31:09.265Z,37.60
2023-05-12T11:32:09.366Z,37.88
2023-05-12T11:33:10.186Z,38.33
2023-05-12T11:34:13.055Z,39.24
2023-05-12T11:35:08.874Z,38.31
2023-05-12T11:36:08.793Z,39.25
2023-05-12T11:37:08.774Z,38.24
2023-05-12T11:38:08.705Z,38.41
2023-05-12T11:39:08.530Z,38.47
2023-05-12T11:40:08.433Z,39.92
2023-05-12T11:41:08.337Z,39.63
2023-05-12T11:42:12.955Z,38.33
2023-05-12T11:43:09.171Z,37.70
2023-05-12T11:44:08.121Z,38.87
2023-05-12T11:45:08.108Z,38.71
2023-05-12T11:46:07.927Z,40.48
2023-05-12T11:47:07.795Z,38.55
2023-05-12T11:48:07.908Z,38.93
2023-05-12T11:49:07.619Z,39.98
2023-05-12T11:50:07.576Z,39.56
2023-05-12T11:51:07.524Z,39.49
2023-05-12T11:52:07.543Z,39.94
2023-05-12T11:53:07.420Z,40.04
2023-05-12T11:54:07.207Z,39.05
2023-05-12T11:55:07.118Z,40.82
2023-05-12T11:56:07.023Z,38.77
2023-05-12T11:57:06.929Z,39.18
2023-05-12T11:58:06.935Z,38.63
2023-05-12T11:59:06.795Z,38.35
2023-05-12T12:00:06.816Z,38.86
2023-05-12T12:01:06.810Z,38.60
2023-05-12T12:02:06.844Z,38.02
2023-05-12T12:03:06.958Z,39.17
2023-05-12T12:04:07.231Z,38.49
2023-05-12T12:05:09.192Z,37.58
2023-05-12T12:06:06.998Z,38.03
2023-05-12T12:07:07.144Z,38.14
2023-05-12T12:08:06.860Z,38.17
2023-05-12T12:09:06.799Z,38.04
2023-05-12T12:10:06.713Z,38.74
2023-05-12T12:11:06.650Z,38.88
2023-05-12T12:12:06.546Z,39.05
2023-05-12T12:13:06.489Z,37.99
2023-05-12T12:14:06.369Z,37.86
2023-05-12T12:15:06.373Z,38.12
2023-05-12T12:16:06.396Z,39.28
2023-05-12T12:17:06.278Z,39.12
2023-05-12T12:18:06.294Z,38.27
2023-05-12T12:19:06.287Z,38.94
2023-05-12T12:20:06.150Z,38.47
2023-05-12T12:21:06.123Z,39.46
2023-05-12T12:22:05.920Z,38.42
2023-05-12T12:23:05.855Z,38.32
2023-05-12T12:24:05.782Z,38.43
2023-05-12T12:25:05.709Z,39.23
2023-05-12T12:26:05.709Z,39.45
2023-05-12T12:27:05.777Z,38.83
2023-05-12T12:28:05.542Z,38.24
2023-05-12T12:29:05.454Z,39.10
2023-05-12T12:30:05.412Z,38.62
2023-05-12T12:31:05.371Z,38.19
2023-05-12T12:32:05.300Z,39.63
2023-05-12T12:33:05.417Z,40.18
2023-05-12T12:34:05.435Z,39.76
2023-05-12T12:35:05.636Z,39.74
2023-05-12T12:36:05.789Z,38.58
2023-05-12T12:37:05.944Z,38.59
2023-05-12T12:38:06.048Z,38.70
2023-05-12T12:39:06.236Z,38.68
2023-05-12T12:40:06.373Z,38.48
2023-05-12T12:41:06.734Z,38.80
2023-05-12T12:42:06.794Z,38.98
2023-05-12T12:43:06.866Z,38.83
2023-05-12T12:44:06.978Z,39.04
2023-05-12T12:45:07.161Z,39.20
2023-05-12T12:46:07.322Z,39.58
2023-05-12T12:47:07.693Z,39.66
2023-05-12T12:48:07.756Z,40.16
2023-05-12T12:49:07.763Z,39.83
2023-05-12T12:50:07.950Z,38.26
2023-05-12T12:51:08.015Z,37.65
2023-05-12T12:52:08.077Z,38.34
2023-05-12T12:53:08.192Z,38.46